Time;durP1;ratioP1;P1;durP2;ratioP2;P2;SDS_P1;SDS_P2;PMS_P1;PMS_P2;Temp;Humidity;BMP_temperature;BMP_pressure;BME280_temperature;BME280_humidity;BME280_pressure;Samples;Min_cycle;Max_cycle;Signal;HPM_P1;HPM_P2
2022/04/23 00:01:06;;;;;;;9.25;5.78;;;;;;;6.85;96.31;100839.89;1757996;81;20920;-44
2022/04/23 00:03:34;;;;;;;8.23;5.67;;;;;;;6.87;96.28;100845.06;1758183;81;20964;-45
2022/04/23 00:06:03;;;;;;;7.20;6.50;;;;;;;6.87;96.20;100839.47;1742984;81;20968;-45
2022/04/23 00:08:30;;;;;;;8.58;6.45;;;;;;;6.88;96.22;100845.05;1758065;81;20980;-45
2022/04/23 00:10:56;;;;;;;8.55;6.53;;;;;;;6.88;96.26;100847.63;1758023;81;21215;-45
2022/04/23 00:13:23;;;;;;;7.40;6.70;;;;;;;6.89;96.38;100848.50;1758093;81;20924;-45
2022/04/23 00:15:53;;;;;;;6.60;5.40;;;;;;;6.91;96.37;100850.64;1758110;81;20980;-45
2022/04/23 00:18:19;;;;;;;6.95;6.15;;;;;;;6.92;96.34;100843.77;1758087;81;21497;-45
2022/04/23 00:20:46;;;;;;;6.55;5.85;;;;;;;6.92;96.27;100842.06;1758092;81;20999;-45
2022/04/23 00:23:13;;;;;;;6.53;5.92;;;;;;;6.92;96.24;100829.61;1758056;80;21145;-45
2022/04/23 00:25:44;;;;;;;7.47;5.67;;;;;;;6.92;96.00;100833.47;1757975;81;21548;-45
2022/04/23 00:28:10;;;;;;;5.72;5.20;;;;;;;6.91;95.84;100832.63;1758098;81;20928;-46
2022/04/23 00:30:37;;;;;;;10.88;5.97;;;;;;;6.89;95.37;100831.33;1758035;81;21498;-45
2022/04/23 00:33:05;;;;;;;8.40;6.42;;;;;;;6.89;95.26;100834.34;1696401;83;20942;-45
2022/04/23 00:35:33;;;;;;;6.90;5.65;;;;;;;6.88;95.19;100834.75;1721974;83;21552;-45
2022/04/23 00:38:00;;;;;;;7.60;6.37;;;;;;;6.87;94.93;100839.47;1698522;84;20964;-45
2022/04/23 00:40:27;;;;;;;7.22;5.95;;;;;;;6.86;94.77;100846.76;1716514;83;20951;-45
2022/04/23 00:42:56;;;;;;;5.70;5.17;;;;;;;6.87;94.66;100839.47;1709029;84;20967;-45
2022/04/23 00:45:26;;;;;;;6.97;5.78;;;;;;;6.88;94.45;100828.32;1709125;84;20972;-45
2022/04/23 00:47:55;;;;;;;7.47;6.47;;;;;;;6.90;94.18;100824.48;1709153;84;21513;-45
2022/04/23 00:50:22;;;;;;;6.10;5.50;;;;;;;6.89;93.91;100818.90;1709105;84;21553;-45
2022/04/23 00:52:55;;;;;;;9.35;5.60;;;;;;;6.90;93.57;100825.32;1705550;83;21604;-45
2022/04/23 00:55:24;;;;;;;8.20;5.45;;;;;;;6.90;93.14;100817.59;1684571;85;21534;-44
2022/04/23 00:57:50;;;;;;;7.28;5.62;;;;;;;6.93;92.77;100822.32;1711733;82;20939;-44
2022/04/23 01:00:18;;;;;;;6.47;5.30;;;;;;;6.93;92.56;100822.32;1701944;84;21066;-45
2022/04/23 01:02:45;;;;;;;7.08;5.65;;;;;;;6.95;92.40;100832.22;1711656;83;21046;-44
2022/04/23 01:05:14;;;;;;;6.62;5.95;;;;;;;6.95;92.12;100829.64;1675759;84;20980;-45
2022/04/23 01:07:43;;;;;;;8.03;6.30;;;;;;;6.95;91.81;100830.94;1711238;82;21454;-45
2022/04/23 01:10:12;;;;;;;8.45;5.72;;;;;;;6.96;91.37;100828.79;1701473;84;20972;-45
2022/04/23 01:12:40;;;;;;;5.97;4.87;;;;;;;6.99;91.06;100827.50;1711187;83;20963;-45
2022/04/23 01:15:09;;;;;;;6.92;5.35;;;;;;;7.01;90.83;100814.20;1701447;84;20972;-45
2022/04/23 01:17:36;;;;;;;6.97;5.72;;;;;;;7.02;90.74;100823.65;1711215;83;21059;-46
2022/04/23 01:20:06;;;;;;;7.40;5.85;;;;;;;7.02;90.67;100826.22;1675847;84;20955;-45
2022/04/23 01:22:37;;;;;;;6.65;5.67;;;;;;;7.02;90.46;100822.36;1691063;83;21529;-45
2022/04/23 01:25:06;;;;;;;8.88;5.33;;;;;;;7.02;90.28;100814.19;1701553;84;21152;-46
2022/04/23 01:27:38;;;;;;;8.98;6.10;;;;;;;7.02;90.09;100806.47;1711043;83;20983;-45
2022/04/23 01:30:06;;;;;;;7.47;6.72;;;;;;;7.01;90.06;100800.89;1700977;84;21454;-46
2022/04/23 01:32:34;;;;;;;9.55;6.95;;;;;;;7.02;90.02;100801.77;1711146;83;20869;-45
2022/04/23 01:35:01;;;;;;;15.90;10.13;;;;;;;7.01;89.87;100805.20;1701578;84;21012;-45
2022/04/23 01:37:28;;;;;;;17.17;9.43;;;;;;;7.02;89.66;100805.63;1711082;83;21241;-46
2022/04/23 01:39:55;;;;;;;18.45;10.13;;;;;;;7.03;89.41;100807.34;1701313;84;20952;-46
2022/04/23 01:42:22;;;;;;;17.40;9.80;;;;;;;7.04;89.08;100801.34;1711079;82;20936;-46
2022/04/23 01:44:51;;;;;;;12.07;7.60;;;;;;;7.05;88.84;100808.20;1675771;84;21502;-45
2022/04/23 01:47:19;;;;;;;15.38;8.15;;;;;;;7.05;88.41;100810.78;1711229;83;21060;-45
2022/04/23 01:49:45;;;;;;;23.00;11.68;;;;;;;7.06;87.89;100809.92;1701291;84;21062;-45
2022/04/23 01:52:14;;;;;;;13.25;8.18;;;;;;;7.09;87.81;100809.08;1712039;83;21055;-46
2022/04/23 01:54:42;;;;;;;11.48;7.35;;;;;;;7.10;87.74;100805.65;1692797;83;21421;-45
2022/04/23 01:57:08;;;;;;;7.40;5.47;;;;;;;7.12;87.49;100804.77;1692671;84;21049;-45
2022/04/23 01:59:35;;;;;;;13.62;8.58;;;;;;;7.12;87.33;100799.63;1692725;84;20860;-45
2022/04/23 02:02:02;;;;;;;12.28;6.78;;;;;;;7.13;87.23;100805.20;1692839;84;21128;-46
2022/04/23 02:04:29;;;;;;;9.78;7.67;;;;;;;7.13;87.06;100800.05;1692741;83;21011;-46
2022/04/23 02:06:56;;;;;;;9.90;7.00;;;;;;;7.13;86.90;100789.76;1692703;84;20990;-45
2022/04/23 02:09:23;;;;;;;10.30;5.37;;;;;;;7.15;86.83;100789.77;1692752;84;21010;-45
2022/04/23 02:11:52;;;;;;;7.80;5.55;;;;;;;7.16;86.80;100794.06;1695309;83;20888;-45
2022/04/23 02:14:20;;;;;;;10.60;6.17;;;;;;;7.16;86.58;100788.47;1721651;83;20968;-45
2022/04/23 02:16:48;;;;;;;6.78;5.62;;;;;;;7.18;86.46;100784.62;1692781;84;20967;-45
2022/04/23 02:19:16;;;;;;;7.00;5.62;;;;;;;7.20;86.30;100788.05;1692734;84;21043;-45
2022/04/23 02:21:45;;;;;;;7.65;5.50;;;;;;;7.19;86.28;100779.45;1721596;83;21596;-45
2022/04/23 02:24:12;;;;;;;5.95;4.85;;;;;;;7.22;86.18;100779.06;1721682;83;20852;-46
2022/04/23 02:26:39;;;;;;;7.40;5.10;;;;;;;7.23;86.28;100778.20;1692923;84;21988;-45
2022/04/23 02:29:06;;;;;;;6.40;5.12;;;;;;;7.24;86.32;100789.77;1692515;84;21385;-45
2022/04/23 02:31:32;;;;;;;6.72;4.90;;;;;;;7.25;86.35;100793.22;1692797;83;21567;-46
2022/04/23 02:34:00;;;;;;;9.58;5.30;;;;;;;7.25;86.66;100788.07;1692662;84;21002;-45
2022/04/23 02:36:27;;;;;;;8.00;5.90;;;;;;;7.25;87.31;100790.64;1692699;84;20999;-45
2022/04/23 02:38:55;;;;;;;8.55;5.95;;;;;;;7.26;87.73;100789.34;1692705;84;21247;-46
2022/04/23 02:41:22;;;;;;;6.83;5.12;;;;;;;7.24;88.70;100780.75;1692701;84;20895;-45
2022/04/23 02:43:49;;;;;;;10.08;5.53;;;;;;;7.21;89.35;100772.19;1692851;84;20978;-46
2022/04/23 02:46:16;;;;;;;6.58;5.90;;;;;;;7.17;90.15;100768.30;1666901;84;20974;-46
2022/04/23 02:48:44;;;;;;;9.25;6.50;;;;;;;7.10;90.84;100753.72;1692699;84;20967;-46
2022/04/23 02:51:15;;;;;;;8.30;5.53;;;;;;;7.08;91.37;100765.73;1692704;84;21170;-46
2022/04/23 02:53:40;;;;;;;12.23;6.28;;;;;;;7.04;92.14;100762.28;1692466;84;21233;-46
2022/04/23 02:56:11;;;;;;;6.70;5.90;;;;;;;7.01;92.35;100770.00;1692752;84;21536;-46
2022/04/23 02:58:37;;;;;;;9.35;6.20;;;;;;;7.00;92.78;100768.73;1721519;83;21002;-45
2022/04/23 03:01:03;;;;;;;11.28;6.22;;;;;;;6.97;93.12;100765.72;1721809;83;20970;-45
2022/04/23 03:03:33;;;;;;;7.40;5.92;;;;;;;6.96;93.16;100753.70;1692632;84;20990;-45
2022/04/23 03:06:00;;;;;;;9.05;6.20;;;;;;;6.96;93.30;100745.14;1692710;83;20998;-45
2022/04/23 03:08:28;;;;;;;9.10;6.53;;;;;;;6.96;93.37;100743.85;1692984;83;20999;-45
2022/04/23 03:10:54;;;;;;;14.43;6.70;;;;;;;6.96;93.49;100738.70;1692731;84;20951;-45
2022/04/23 03:13:23;;;;;;;7.37;5.55;;;;;;;6.95;93.51;100737.83;1692642;84;20983;-46
2022/04/23 03:15:50;;;;;;;6.62;5.87;;;;;;;6.97;92.84;100742.55;1693046;84;21899;-45
2022/04/23 03:18:18;;;;;;;8.60;5.72;;;;;;;6.99;92.70;100745.98;1721604;83;21372;-45
2022/04/23 03:20:46;;;;;;;8.23;5.90;;;;;;;7.02;92.11;100745.98;1721558;83;20983;-46
2022/04/23 03:23:13;;;;;;;10.18;6.62;;;;;;;7.05;91.83;100744.69;1692681;84;20912;-46
2022/04/23 03:25:41;;;;;;;6.50;5.55;;;;;;;7.09;91.31;100751.16;1692643;84;21045;-46
2022/04/23 03:28:08;;;;;;;6.72;5.60;;;;;;;7.12;91.07;100752.00;1692654;84;21144;-46
2022/04/23 03:30:35;;;;;;;5.87;5.25;;;;;;;7.17;90.76;100744.28;1692562;84;21042;-46
2022/04/23 03:33:03;;;;;;;6.78;5.25;;;;;;;7.21;90.69;100749.02;1692656;84;21472;-45
2022/04/23 03:35:31;;;;;;;6.47;5.67;;;;;;;7.26;90.44;100755.86;1721459;83;20967;-45
2022/04/23 03:37:59;;;;;;;6.10;5.47;;;;;;;7.29;90.49;100751.16;1721670;83;20888;-45
2022/04/23 03:40:27;;;;;;;6.00;5.10;;;;;;;7.30;90.17;100751.14;1692721;84;21161;-45
2022/04/23 03:42:54;;;;;;;6.45;5.37;;;;;;;7.32;90.15;100747.28;1692507;84;20931;-45
2022/04/23 03:45:24;;;;;;;6.37;5.65;;;;;;;7.31;90.13;100753.30;1721656;83;20947;-45
2022/04/23 03:47:52;;;;;;;8.38;5.95;;;;;;;7.29;89.71;100753.73;1721610;83;21011;-45
2022/04/23 03:50:20;;;;;;;7.62;6.03;;;;;;;7.26;90.17;100748.14;1692785;83;21520;-45
2022/04/23 03:52:47;;;;;;;6.25;5.20;;;;;;;7.25;90.40;100757.17;1691755;83;21237;-46
2022/04/23 03:55:14;;;;;;;8.35;5.75;;;;;;;7.22;90.91;100753.31;1735766;82;20889;-46
2022/04/23 03:57:50;;;;;;;7.40;5.87;;;;;;;7.17;91.47;100752.02;1735905;82;20925;-46
2022/04/23 04:00:22;;;;;;;8.70;5.87;;;;;;;7.12;92.53;100752.44;1735844;82;20870;-45
2022/04/23 04:02:50;;;;;;;8.75;5.75;;;;;;;7.05;93.25;100754.98;1735913;82;20901;-46
2022/04/23 04:05:17;;;;;;;6.90;6.00;;;;;;;7.00;93.94;100757.16;1735949;82;21078;-47
2022/04/23 04:07:46;;;;;;;7.85;5.33;;;;;;;6.96;94.36;100749.84;1735847;82;20965;-46
2022/04/23 04:10:15;;;;;;;7.22;6.00;;;;;;;6.95;94.57;100749.86;1735860;82;20956;-47
2022/04/23 04:12:44;;;;;;;7.62;6.53;;;;;;;6.94;95.10;100752.84;1735765;82;20977;-47
2022/04/23 04:15:15;;;;;;;8.15;5.95;;;;;;;6.94;95.78;100748.11;1735935;82;20935;-47
2022/04/23 04:17:44;;;;;;;5.85;5.33;;;;;;;6.97;96.08;100746.86;1735882;82;21781;-47
2022/04/23 04:20:12;;;;;;;8.85;5.80;;;;;;;6.99;96.28;100748.55;1735806;81;21004;-48
2022/04/23 04:22:41;;;;;;;11.15;6.25;;;;;;;7.02;96.44;100747.71;1735889;82;20886;-47
2022/04/23 04:25:11;;;;;;;6.95;6.15;;;;;;;7.08;96.65;100755.87;1735856;82;21011;-46
2022/04/23 04:27:39;;;;;;;7.97;6.30;;;;;;;7.13;96.97;100760.15;1735947;82;21560;-48
2022/04/23 04:30:09;;;;;;;11.53;5.75;;;;;;;7.19;96.98;100755.44;1735733;82;21314;-49
2022/04/23 04:32:38;;;;;;;9.68;5.47;;;;;;;7.23;96.74;100750.72;1735812;82;20969;-49
2022/04/23 04:35:06;;;;;;;7.60;6.42;;;;;;;7.29;96.47;100753.28;1735745;81;20917;-47
2022/04/23 04:37:34;;;;;;;7.28;6.28;;;;;;;7.38;96.49;100749.85;1735787;82;20964;-48
2022/04/23 04:40:04;;;;;;;7.92;5.87;;;;;;;7.50;96.41;100735.27;1736039;82;21451;-49
2022/04/23 04:42:32;;;;;;;5.45;4.95;;;;;;;7.69;96.23;100727.06;1736253;82;21261;-46
2022/04/23 04:44:59;;;;;;;6.67;5.85;;;;;;;7.90;95.88;100720.57;1715134;82;20988;-46
2022/04/23 04:47:25;;;;;;;11.90;5.60;;;;;;;8.10;94.98;100717.48;1736023;82;21011;-47
2022/04/23 04:49:54;;;;;;;8.60;6.33;;;;;;;8.23;93.61;100729.48;1736089;82;20949;-47
2022/04/23 04:52:20;;;;;;;8.08;6.47;;;;;;;8.29;91.71;100728.16;1736035;81;20909;-47
2022/04/23 04:54:48;;;;;;;9.50;5.78;;;;;;;8.32;90.61;100731.14;1746487;81;20976;-47
2022/04/23 04:57:17;;;;;;;8.35;5.90;;;;;;;8.35;89.73;100732.44;1750001;82;20865;-47
2022/04/23 04:59:45;;;;;;;8.23;6.12;;;;;;;8.36;89.59;100729.00;1750040;81;20925;-48
2022/04/23 05:02:12;;;;;;;9.65;7.03;;;;;;;8.38;88.54;100732.42;1749866;81;20921;-48
2022/04/23 05:04:40;;;;;;;7.72;6.83;;;;;;;8.40;87.67;100737.14;1749978;82;21457;-47
2022/04/23 05:07:08;;;;;;;13.32;6.55;;;;;;;8.44;86.99;100734.96;1749981;82;22067;-47
2022/04/23 05:09:34;;;;;;;8.38;6.67;;;;;;;8.54;86.78;100747.42;1749973;82;20975;-47
2022/04/23 05:12:04;;;;;;;10.05;7.78;;;;;;;8.60;85.64;100738.34;1750006;82;21430;-46
2022/04/23 05:14:32;;;;;;;11.53;7.22;;;;;;;8.65;85.34;100743.48;1722825;82;20940;-47
2022/04/23 05:16:59;;;;;;;12.73;6.60;;;;;;;8.74;84.65;100743.88;1722739;82;21553;-46
2022/04/23 05:19:26;;;;;;;11.88;6.25;;;;;;;8.83;84.16;100739.93;1749848;82;21218;-47
2022/04/23 05:21:54;;;;;;;6.22;5.58;;;;;;;8.95;84.14;100745.86;1750008;82;20941;-47
2022/04/23 05:24:24;;;;;;;11.63;6.47;;;;;;;9.12;83.94;100743.18;1750050;82;20877;-48
2022/04/23 05:26:51;;;;;;;16.70;6.42;;;;;;;9.32;81.73;100743.01;1750027;82;20935;-47
2022/04/23 05:29:19;;;;;;;9.43;6.83;;;;;;;9.53;81.91;100744.98;1750099;82;21000;-47
2022/04/23 05:31:47;;;;;;;10.63;7.08;;;;;;;9.72;81.27;100740.03;1750010;82;20972;-47
2022/04/23 05:34:14;;;;;;;8.35;6.12;;;;;;;9.88;79.23;100738.59;1749764;82;20885;-47
2022/04/23 05:36:42;;;;;;;6.53;5.50;;;;;;;10.02;78.38;100734.55;1750020;82;21462;-47
2022/04/23 05:39:08;;;;;;;7.37;5.70;;;;;;;10.22;77.15;100733.00;1750013;82;20952;-47
2022/04/23 05:41:36;;;;;;;8.00;6.15;;;;;;;10.44;74.71;100725.00;1749885;81;20972;-48
2022/04/23 05:44:03;;;;;;;6.15;5.33;;;;;;;10.62;74.74;100731.22;1749928;80;22048;-47
2022/04/23 05:46:29;;;;;;;9.30;6.22;;;;;;;10.73;73.79;100731.07;1749906;81;20841;-49
2022/04/23 05:48:57;;;;;;;8.93;5.42;;;;;;;10.86;73.75;100725.27;1749865;82;20921;-48
2022/04/23 05:51:25;;;;;;;10.03;5.33;;;;;;;10.96;71.08;100721.23;1749876;81;20960;-47
2022/04/23 05:53:52;;;;;;;7.90;5.45;;;;;;;10.98;71.57;100707.81;1749943;82;20932;-47
2022/04/23 05:56:20;;;;;;;8.98;5.05;;;;;;;11.02;71.41;100695.25;1750000;82;21235;-48
2022/04/23 05:58:48;;;;;;;8.88;5.15;;;;;;;11.04;70.41;100694.78;1749924;82;21445;-47
2022/04/23 06:01:15;;;;;;;10.90;5.12;;;;;;;11.11;70.42;100678.25;1749962;82;20913;-47
2022/04/23 06:03:43;;;;;;;7.85;5.47;;;;;;;11.27;70.36;100668.92;1749769;82;20933;-47
2022/04/23 06:06:11;;;;;;;5.33;4.83;;;;;;;11.46;68.85;100661.66;1749999;82;21015;-48
2022/04/23 06:08:43;;;;;;;9.93;4.90;;;;;;;11.68;68.62;100643.94;1750023;82;21195;-48
2022/04/23 06:11:09;;;;;;;5.65;4.90;;;;;;;11.81;66.19;100639.81;1749910;82;20984;-47
2022/04/23 06:13:37;;;;;;;9.83;5.42;;;;;;;11.73;66.30;100640.80;1749783;81;20967;-47
2022/04/23 06:16:05;;;;;;;9.45;6.40;;;;;;;11.67;66.39;100646.58;1749951;82;20932;-47
2022/04/23 06:18:32;;;;;;;9.93;4.80;;;;;;;11.47;66.84;100655.13;1749911;82;20913;-48
2022/04/23 06:20:59;;;;;;;7.78;5.08;;;;;;;11.43;67.92;100664.31;1749899;82;21241;-47
2022/04/23 06:23:27;;;;;;;5.65;5.15;;;;;;;11.50;67.88;100668.06;1749839;82;20876;-47
2022/04/23 06:25:55;;;;;;;5.83;4.92;;;;;;;11.58;67.54;100667.05;1749966;81;20956;-47
2022/04/23 06:28:22;;;;;;;5.85;4.95;;;;;;;11.64;67.49;100677.30;1749940;82;20941;-47
2022/04/23 06:30:49;;;;;;;5.55;4.85;;;;;;;11.64;68.00;100678.16;1750003;81;21003;-47
2022/04/23 06:33:18;;;;;;;5.10;4.55;;;;;;;11.68;68.32;100676.80;1749920;82;20916;-47
2022/04/23 06:35:45;;;;;;;5.08;4.62;;;;;;;11.67;67.75;100677.23;1749816;81;20896;-47
2022/04/23 06:38:12;;;;;;;5.12;4.40;;;;;;;11.73;68.10;100678.86;1749895;81;20892;-47
2022/04/23 06:40:40;;;;;;;8.75;4.55;;;;;;;11.90;68.18;100671.60;1749886;81;20952;-47
2022/04/23 06:43:08;;;;;;;6.80;4.37;;;;;;;12.06;67.89;100677.36;1749807;81;20972;-48
2022/04/23 06:45:35;;;;;;;7.30;4.75;;;;;;;12.18;67.30;100677.97;1749857;82;21100;-47
2022/04/23 06:48:04;;;;;;;4.92;4.15;;;;;;;12.29;67.02;100674.71;1749832;82;20904;-47
2022/04/23 06:50:32;;;;;;;4.45;3.72;;;;;;;12.32;66.62;100670.75;1739086;82;21569;-47
2022/04/23 06:53:00;;;;;;;4.28;3.87;;;;;;;12.35;66.44;100675.00;1749932;82;21007;-47
2022/04/23 06:55:29;;;;;;;7.12;4.65;;;;;;;12.41;66.10;100683.97;1739231;81;20933;-48
2022/04/23 06:57:55;;;;;;;6.58;4.47;;;;;;;12.45;66.01;100682.14;1735834;82;21238;-48
2022/04/23 07:00:22;;;;;;;5.85;4.20;;;;;;;12.51;65.67;100689.81;1735825;82;20873;-46
2022/04/23 07:02:53;;;;;;;5.30;3.37;;;;;;;12.64;66.02;100674.34;1735893;82;20965;-48
2022/04/23 07:05:19;;;;;;;7.42;3.65;;;;;;;12.81;64.09;100683.48;1735795;82;20866;-48
2022/04/23 07:07:58;;;;;;;4.37;2.80;;;;;;;12.98;63.16;100677.87;1735901;81;20984;-48
2022/04/23 07:10:26;;;;;;;6.75;2.70;;;;;;;13.14;59.54;100678.33;1735973;82;20918;-46
2022/04/23 07:12:53;;;;;;;4.67;2.80;;;;;;;13.29;59.65;100676.23;1735749;82;20881;-47
2022/04/23 07:15:21;;;;;;;2.85;2.65;;;;;;;13.52;58.63;100668.31;1735827;81;20917;-47
2022/04/23 07:17:50;;;;;;;2.58;2.40;;;;;;;13.72;56.71;100658.17;1735882;82;20877;-47
2022/04/23 07:20:19;;;;;;;2.55;2.45;;;;;;;13.84;56.32;100658.73;1735960;82;21471;-47
2022/04/23 07:25:33;;;;;;;2.98;2.77;;;;;;;14.10;55.58;100651.91;1735879;82;20964;-47
2022/04/23 07:28:02;;;;;;;2.67;2.47;;;;;;;14.15;53.40;100648.28;1735815;82;20929;-47
2022/04/23 07:30:29;;;;;;;2.35;2.25;;;;;;;14.23;54.03;100645.42;1736055;82;20946;-46
2022/04/23 07:32:56;;;;;;;2.35;2.15;;;;;;;14.33;52.76;100650.77;1735822;82;20925;-47
2022/04/23 07:38:23;;;;;;;2.27;2.00;;;;;;;14.48;53.13;100654.64;1736019;82;20992;-47
2022/04/23 07:40:50;;;;;;;2.10;2.00;;;;;;;14.57;51.70;100653.50;1735725;82;20972;-47
2022/04/23 07:43:17;;;;;;;2.22;2.05;;;;;;;14.59;52.00;100648.22;1735665;82;20838;-48
2022/04/23 07:45:45;;;;;;;2.10;2.00;;;;;;;14.66;50.90;100641.94;1735773;81;20909;-48
2022/04/23 07:48:13;;;;;;;2.20;2.10;;;;;;;14.83;49.62;100644.02;1735861;82;20933;-48
2022/04/23 07:50:42;;;;;;;2.70;2.47;;;;;;;14.92;49.25;100638.95;1735771;82;20921;-48
2022/04/23 07:53:09;;;;;;;2.17;2.08;;;;;;;14.96;48.95;100650.97;1715027;82;20989;-48
2022/04/23 07:55:38;;;;;;;2.52;2.33;;;;;;;15.03;49.31;100644.63;1735738;81;20929;-48
2022/04/23 07:58:06;;;;;;;2.10;2.00;;;;;;;15.30;48.03;100642.44;1735876;82;21004;-48
2022/04/23 08:00:34;;;;;;;2.40;2.20;;;;;;;15.60;48.98;100649.60;1735859;82;20976;-46
2022/04/23 08:03:05;;;;;;;4.97;1.98;;;;;;;15.86;47.23;100637.81;1735692;82;20893;-46
2022/04/23 08:05:33;;;;;;;3.72;2.10;;;;;;;15.84;46.36;100635.25;1735803;82;20933;-48
2022/04/23 08:08:00;;;;;;;3.37;2.40;;;;;;;15.84;46.46;100626.59;1735803;82;20921;-48
2022/04/23 08:10:28;;;;;;;2.45;2.00;;;;;;;15.80;45.81;100621.48;1735806;81;20920;-48
2022/04/23 08:12:56;;;;;;;2.50;2.30;;;;;;;15.67;46.86;100625.45;1735826;82;21495;-48
2022/04/23 08:15:23;;;;;;;2.62;2.10;;;;;;;15.74;46.79;100622.16;1735876;82;20925;-48
2022/04/23 08:17:51;;;;;;;4.20;2.30;;;;;;;15.82;46.10;100621.88;1735841;82;21521;-48
2022/04/23 08:20:18;;;;;;;4.90;2.12;;;;;;;15.74;45.90;100617.78;1735977;81;20921;-48
2022/04/23 08:22:46;;;;;;;3.27;1.87;;;;;;;15.73;47.15;100617.38;1736027;82;20937;-48
2022/04/23 08:25:13;;;;;;;2.15;1.95;;;;;;;15.74;46.82;100613.86;1735861;82;21111;-48
2022/04/23 08:27:53;;;;;;;2.87;2.12;;;;;;;15.71;46.86;100595.72;1735972;82;21459;-48
2022/04/23 08:30:34;;;;;;;1.95;1.75;;;;;;;15.78;46.41;100601.09;1735808;82;20992;-48
2022/04/23 08:33:04;;;;;;;2.10;2.00;;;;;;;15.69;45.21;100601.45;1736012;82;20937;-48
2022/04/23 08:35:33;;;;;;;3.15;2.00;;;;;;;15.54;46.34;100592.91;1735908;82;21016;-47
2022/04/23 08:37:59;;;;;;;2.33;2.12;;;;;;;15.48;45.03;100605.72;1735997;82;21143;-47
2022/04/23 08:40:29;;;;;;;1.77;1.67;;;;;;;15.29;44.77;100595.11;1735912;82;20925;-47
2022/04/23 08:42:57;;;;;;;2.02;1.92;;;;;;;14.91;45.82;100595.08;1735983;82;21078;-47
2022/04/23 08:45:24;;;;;;;2.00;1.80;;;;;;;14.81;46.06;100597.61;1736065;82;21015;-46
2022/04/23 08:47:52;;;;;;;2.08;1.67;;;;;;;14.85;45.44;100591.39;1736079;82;20915;-46
2022/04/23 08:50:22;;;;;;;1.60;1.50;;;;;;;14.89;44.75;100585.16;1735983;82;21203;-46
2022/04/23 08:52:55;;;;;;;2.92;1.40;;;;;;;14.98;42.75;100593.55;1736104;82;20996;-47
2022/04/23 08:55:22;;;;;;;1.77;1.67;;;;;;;14.96;42.58;100596.67;1742132;81;20980;-47
2022/04/23 08:57:49;;;;;;;1.70;1.60;;;;;;;14.91;42.33;100602.89;1749830;82;20877;-47
2022/04/23 09:00:16;;;;;;;1.65;1.55;;;;;;;14.92;43.39;100595.48;1750053;82;20889;-47
2022/04/23 09:02:44;;;;;;;1.57;1.47;;;;;;;14.99;44.32;100593.95;1749890;81;21482;-46
2022/04/23 09:05:12;;;;;;;1.80;1.70;;;;;;;15.02;43.85;100606.87;1749848;82;20968;-47
2022/04/23 09:07:42;;;;;;;4.30;1.60;;;;;;;14.92;43.68;100605.07;1750081;82;20968;-47
2022/04/23 09:10:11;;;;;;;4.03;1.80;;;;;;;14.77;43.81;100592.95;1722093;82;21011;-46
2022/04/23 09:12:54;;;;;;;1.82;1.72;;;;;;;14.68;44.94;100609.30;1750302;82;21450;-46
2022/04/23 09:24:09;;;;;;;1.90;1.80;;;;;;;14.43;45.44;100590.56;1740919;82;20960;-47
2022/04/23 09:26:35;;;;;;;6.65;2.87;;;;;;;14.29;45.90;100577.56;1750101;82;20932;-47
2022/04/23 09:29:18;;;;;;;2.67;2.05;;;;;;;14.20;46.24;100573.50;1749907;82;21149;-48
2022/04/23 09:31:46;;;;;;;1.98;1.87;;;;;;;14.20;46.15;100574.80;1749825;82;20933;-47
2022/04/23 09:34:17;;;;;;;2.47;1.75;;;;;;;14.16;46.35;100578.84;1749854;82;21136;-47
2022/04/23 09:36:56;;;;;;;3.30;1.98;;;;;;;14.08;46.30;100584.27;1749966;82;21084;-48
2022/04/23 09:39:36;;;;;;;5.75;2.17;;;;;;;13.97;45.55;100591.58;1749512;82;20912;-47
2022/04/23 09:42:17;;;;;;;5.20;2.17;;;;;;;13.84;45.65;100589.79;1749888;82;21259;-47
2022/04/23 09:44:46;;;;;;;4.62;2.17;;;;;;;13.65;45.94;100608.53;1749643;82;20976;-48
2022/04/23 09:47:30;;;;;;;4.75;2.22;;;;;;;13.51;46.45;100608.92;1749720;82;20934;-46
2022/04/23 09:49:58;;;;;;;3.80;1.73;;;;;;;13.35;45.94;100608.48;1750184;80;20897;-46
2022/04/23 09:52:31;;;;;;;3.92;1.80;;;;;;;13.18;46.14;100613.67;1749880;82;20912;-46
2022/04/23 09:55:02;;;;;;;2.35;1.82;;;;;;;13.06;46.75;100623.11;1749747;82;20980;-48
2022/04/23 09:57:30;;;;;;;4.20;1.67;;;;;;;12.92;47.70;100615.21;1749869;82;20854;-46
2022/04/23 09:59:58;;;;;;;2.50;2.05;;;;;;;12.86;48.52;100614.51;1749978;82;21414;-46
2022/04/23 10:02:26;;;;;;;2.12;2.02;;;;;;;12.88;48.83;100609.70;1749988;82;20944;-46
2022/04/23 10:04:55;;;;;;;4.55;1.90;;;;;;;12.99;48.94;100608.12;1749883;81;20960;-46
2022/04/23 10:07:24;;;;;;;4.03;2.25;;;;;;;13.14;48.98;100605.56;1749643;81;21216;-46
2022/04/23 10:09:50;;;;;;;9.38;3.37;;;;;;;13.35;49.18;100605.88;1749770;82;20924;-47
2022/04/23 10:12:19;;;;;;;2.47;2.20;;;;;;;13.55;49.59;100607.11;1749959;82;20873;-48
2022/04/23 10:14:52;;;;;;;2.87;2.10;;;;;;;13.77;49.52;100608.19;1749909;82;20940;-47
2022/04/23 10:17:20;;;;;;;4.22;3.83;;;;;;;13.94;48.80;100616.80;1749963;82;20979;-47
2022/04/23 10:19:48;;;;;;;2.80;2.02;;;;;;;13.98;47.91;100624.50;1750051;82;20897;-47
2022/04/23 10:22:34;;;;;;;2.12;1.98;;;;;;;13.89;47.88;100626.49;1749914;81;21514;-47
2022/04/23 10:25:29;;;;;;;1.77;1.67;;;;;;;13.77;48.48;100626.41;1749075;82;21607;-47
2022/04/23 10:27:57;;;;;;;3.10;2.33;;;;;;;13.62;48.25;100620.33;1749084;82;20869;-46
2022/04/23 10:30:31;;;;;;;1.92;1.82;;;;;;;13.40;48.81;100613.56;1749932;82;21011;-47
2022/04/23 10:32:57;;;;;;;2.10;1.92;;;;;;;13.26;48.98;100616.50;1750046;82;21211;-46
2022/04/23 10:35:31;;;;;;;2.47;1.80;;;;;;;13.12;49.57;100610.37;1749681;82;20945;-47
2022/04/23 10:38:02;;;;;;;3.72;1.98;;;;;;;13.07;50.64;100609.22;1750071;82;20850;-47
2022/04/23 10:40:27;;;;;;;2.05;1.90;;;;;;;13.01;51.00;100619.75;1714997;82;20933;-47
2022/04/23 10:43:08;;;;;;;2.00;1.62;;;;;;;12.89;50.68;100593.21;1722398;82;20888;-47
2022/04/23 10:45:36;;;;;;;2.65;1.70;;;;;;;12.79;50.20;100585.27;1722492;82;21268;-47
2022/04/23 10:48:24;;;;;;;1.70;1.60;;;;;;;12.65;51.17;100586.45;1749727;82;21446;-47
2022/04/23 10:51:20;;;;;;;2.08;1.72;;;;;;;12.51;51.72;100584.66;1722767;82;20952;-47
2022/04/23 10:53:50;;;;;;;2.87;1.95;;;;;;;12.33;53.24;100582.90;1749611;82;21046;-47
2022/04/23 10:56:19;;;;;;;1.55;1.45;;;;;;;12.07;51.02;100551.92;1749987;81;20857;-47
2022/04/23 10:58:46;;;;;;;1.47;1.37;;;;;;;11.72;52.58;100565.19;1749857;82;21938;-48
2022/04/23 11:01:30;;;;;;;3.15;1.72;;;;;;;11.41;51.65;100555.47;1749722;81;20972;-47
2022/04/23 11:04:10;;;;;;;1.92;1.77;;;;;;;11.20;53.66;100547.69;1749664;81;20872;-48
2022/04/23 11:12:36;;;;;;;3.27;2.70;;;;;;;10.76;58.52;100527.77;1722942;80;21137;-48
2022/04/23 11:15:15;;;;;;;3.70;3.40;;;;;;;10.68;59.47;100524.89;1749818;81;20925;-49
2022/04/23 11:17:54;;;;;;;5.55;2.80;;;;;;;10.64;60.79;100517.64;1750018;82;21078;-48
2022/04/23 11:20:30;;;;;;;7.95;5.75;;;;;;;10.68;60.26;100511.95;1749975;82;21563;-48
2022/04/23 11:22:59;;;;;;;9.30;6.33;;;;;;;10.72;61.76;100511.87;1748767;82;20916;-48
2022/04/23 11:25:30;;;;;;;10.03;5.10;;;;;;;10.76;61.38;100508.34;1749832;82;20853;-48
2022/04/23 11:28:13;;;;;;;4.53;3.87;;;;;;;10.78;61.85;100502.69;1749653;81;20944;-48
2022/04/23 11:30:40;;;;;;;4.35;3.95;;;;;;;10.86;61.07;100506.86;1750066;82;20880;-47
2022/04/23 11:33:11;;;;;;;3.77;3.27;;;;;;;10.88;61.03;100493.02;1749881;81;20920;-47
2022/04/23 11:35:39;;;;;;;4.50;3.37;;;;;;;10.88;60.83;100486.55;1749735;81;20960;-48
2022/04/23 11:38:08;;;;;;;3.35;3.08;;;;;;;10.87;60.69;100474.48;1749677;81;22041;-48
2022/04/23 11:40:36;;;;;;;5.60;3.85;;;;;;;10.85;59.82;100477.97;1721979;82;20967;-47
2022/04/23 11:43:04;;;;;;;6.67;4.00;;;;;;;10.78;59.50;100475.97;1722565;82;20932;-47
2022/04/23 11:45:37;;;;;;;5.35;3.80;;;;;;;10.71;60.23;100467.45;1749914;82;21128;-47
2022/04/23 11:48:11;;;;;;;5.47;2.70;;;;;;;10.63;60.96;100465.45;1748501;82;20976;-47
2022/04/23 11:50:38;;;;;;;3.17;2.83;;;;;;;10.55;62.13;100482.41;1722396;82;21234;-47
2022/04/23 11:53:06;;;;;;;3.30;2.52;;;;;;;10.51;63.01;100487.23;1722279;82;21493;-47
2022/04/23 11:55:32;;;;;;;3.45;2.15;;;;;;;10.47;64.97;100492.03;1749909;82;21500;-47
2022/04/23 11:58:01;;;;;;;4.72;1.80;;;;;;;10.44;64.51;100489.08;1750028;80;21469;-47